Terminal Aerodrome Forecast
Issued by NWS Charleston, WV

Current Version | Previous Version | Graphics & Text | Print | Product List | Glossary On
Versions: 1 2 3 4 5 6 7 8 9 10 11 12 13 14 15 16 17 18 19 20
608
FTUS41 KRLX 241720
TAFBKW
TAF
KBKW 241720Z 2418/2518 31006KT P6SM FEW045
     FM242000 29007KT P6SM SCT250
     FM250200 VRB03KT P6SM SKC
     FM251400 24006KT P6SM SCT060=

USA.gov is the U.S. government's official web portal to all federal, state and local government web resources and services.